METAR Data
IDs: Format: Raw Decoded Include TAF

Data at: 0835 UTC 13 Aug 2022

PTSA 130256Z VRB03KT 10SM BKN020 BKN130 BKN300 30/25 A2980 RMK LAST